sensor_id;sensor_type;location;lat;lon;timestamp;P1;durP1;ratioP1;P2;durP2;ratioP2
69779;SDS011;57052;55.602;38.096;2023-12-22T00:00:27;9.63;;;3.88;;
69779;SDS011;57052;55.602;38.096;2023-12-22T00:02:53;8.80;;;4.22;;
69779;SDS011;57052;55.602;38.096;2023-12-22T00:05:19;17.10;;;3.67;;
69779;SDS011;57052;55.602;38.096;2023-12-22T00:07:44;8.13;;;3.67;;
69779;SDS011;57052;55.602;38.096;2023-12-22T00:10:10;7.60;;;3.70;;
69779;SDS011;57052;55.602;38.096;2023-12-22T00:12:36;10.00;;;3.80;;
69779;SDS011;57052;55.602;38.096;2023-12-22T00:15:04;12.55;;;3.88;;
69779;SDS011;57052;55.602;38.096;2023-12-22T00:17:30;8.45;;;3.85;;
69779;SDS011;57052;55.602;38.096;2023-12-22T00:19:56;9.98;;;4.07;;
69779;SDS011;57052;55.602;38.096;2023-12-22T00:22:24;8.45;;;4.03;;
69779;SDS011;57052;55.602;38.096;2023-12-22T00:24:53;8.32;;;4.10;;
69779;SDS011;57052;55.602;38.096;2023-12-22T00:27:18;7.45;;;4.28;;
69779;SDS011;57052;55.602;38.096;2023-12-22T00:29:44;9.18;;;4.60;;
69779;SDS011;57052;55.602;38.096;2023-12-22T00:32:10;10.02;;;5.00;;
69779;SDS011;57052;55.602;38.096;2023-12-22T00:34:35;9.13;;;4.47;;
69779;SDS011;57052;55.602;38.096;2023-12-22T00:37:01;12.10;;;4.95;;
69779;SDS011;57052;55.602;38.096;2023-12-22T00:39:29;9.75;;;4.72;;
69779;SDS011;57052;55.602;38.096;2023-12-22T00:41:56;10.55;;;4.63;;
69779;SDS011;57052;55.602;38.096;2023-12-22T00:44:21;11.25;;;5.43;;
69779;SDS011;57052;55.602;38.096;2023-12-22T00:46:47;9.82;;;5.32;;
69779;SDS011;57052;55.602;38.096;2023-12-22T00:49:13;12.10;;;5.72;;
69779;SDS011;57052;55.602;38.096;2023-12-22T00:51:38;10.52;;;5.05;;
69779;SDS011;57052;55.602;38.096;2023-12-22T00:54:04;11.85;;;5.10;;
69779;SDS011;57052;55.602;38.096;2023-12-22T00:56:30;7.80;;;4.45;;
69779;SDS011;57052;55.602;38.096;2023-12-22T00:58:56;10.70;;;4.70;;
69779;SDS011;57052;55.602;38.096;2023-12-22T01:01:21;9.65;;;4.00;;
69779;SDS011;57052;55.602;38.096;2023-12-22T01:03:47;7.40;;;3.60;;
69779;SDS011;57052;55.602;38.096;2023-12-22T01:06:13;9.05;;;4.30;;
69779;SDS011;57052;55.602;38.096;2023-12-22T01:08:40;8.70;;;4.20;;
69779;SDS011;57052;55.602;38.096;2023-12-22T01:11:05;7.57;;;4.13;;
69779;SDS011;57052;55.602;38.096;2023-12-22T01:13:31;7.45;;;4.05;;
69779;SDS011;57052;55.602;38.096;2023-12-22T01:15:57;8.88;;;4.63;;
69779;SDS011;57052;55.602;38.096;2023-12-22T01:18:22;8.68;;;4.22;;
69779;SDS011;57052;55.602;38.096;2023-12-22T01:20:50;9.75;;;4.60;;
69779;SDS011;57052;55.602;38.096;2023-12-22T01:23:15;8.77;;;4.43;;
69779;SDS011;57052;55.602;38.096;2023-12-22T01:25:41;8.52;;;3.97;;
69779;SDS011;57052;55.602;38.096;2023-12-22T01:28:07;7.75;;;4.22;;
69779;SDS011;57052;55.602;38.096;2023-12-22T01:30:33;8.90;;;4.38;;
69779;SDS011;57052;55.602;38.096;2023-12-22T01:32:58;10.80;;;4.65;;
69779;SDS011;57052;55.602;38.096;2023-12-22T01:35:24;8.68;;;4.90;;
69779;SDS011;57052;55.602;38.096;2023-12-22T01:37:50;7.63;;;4.35;;
69779;SDS011;57052;55.602;38.096;2023-12-22T01:40:16;9.10;;;5.03;;
69779;SDS011;57052;55.602;38.096;2023-12-22T01:42:42;9.98;;;5.03;;
69779;SDS011;57052;55.602;38.096;2023-12-22T01:45:08;10.32;;;4.97;;
69779;SDS011;57052;55.602;38.096;2023-12-22T01:47:34;9.13;;;4.35;;
69779;SDS011;57052;55.602;38.096;2023-12-22T01:50:00;11.13;;;4.90;;
69779;SDS011;57052;55.602;38.096;2023-12-22T01:52:29;9.02;;;4.80;;
69779;SDS011;57052;55.602;38.096;2023-12-22T01:54:55;11.20;;;5.10;;
69779;SDS011;57052;55.602;38.096;2023-12-22T01:57:21;10.90;;;4.90;;
69779;SDS011;57052;55.602;38.096;2023-12-22T01:59:47;11.85;;;4.90;;
69779;SDS011;57052;55.602;38.096;2023-12-22T02:02:14;13.70;;;5.03;;
69779;SDS011;57052;55.602;38.096;2023-12-22T02:04:40;11.30;;;5.22;;
69779;SDS011;57052;55.602;38.096;2023-12-22T02:07:06;10.85;;;5.35;;
69779;SDS011;57052;55.602;38.096;2023-12-22T02:09:35;12.55;;;5.53;;
69779;SDS011;57052;55.602;38.096;2023-12-22T02:12:02;10.30;;;4.93;;
69779;SDS011;57052;55.602;38.096;2023-12-22T02:14:29;10.10;;;5.15;;
69779;SDS011;57052;55.602;38.096;2023-12-22T02:16:59;11.02;;;5.35;;
69779;SDS011;57052;55.602;38.096;2023-12-22T02:19:51;14.38;;;5.15;;
69779;SDS011;57052;55.602;38.096;2023-12-22T02:22:17;11.13;;;5.38;;
69779;SDS011;57052;55.602;38.096;2023-12-22T02:24:42;13.75;;;5.40;;
69779;SDS011;57052;55.602;38.096;2023-12-22T02:27:21;11.80;;;5.00;;
69779;SDS011;57052;55.602;38.096;2023-12-22T02:30:00;10.93;;;5.13;;
69779;SDS011;57052;55.602;38.096;2023-12-22T02:32:32;12.48;;;5.18;;
69779;SDS011;57052;55.602;38.096;2023-12-22T02:35:03;12.32;;;5.43;;
69779;SDS011;57052;55.602;38.096;2023-12-22T02:37:32;12.63;;;5.30;;
69779;SDS011;57052;55.602;38.096;2023-12-22T02:40:01;11.35;;;4.95;;
69779;SDS011;57052;55.602;38.096;2023-12-22T02:42:30;12.20;;;5.50;;
69779;SDS011;57052;55.602;38.096;2023-12-22T02:44:58;10.57;;;5.00;;
69779;SDS011;57052;55.602;38.096;2023-12-22T02:47:24;13.02;;;5.47;;
69779;SDS011;57052;55.602;38.096;2023-12-22T02:49:50;12.30;;;5.75;;
69779;SDS011;57052;55.602;38.096;2023-12-22T02:52:15;11.75;;;5.55;;
69779;SDS011;57052;55.602;38.096;2023-12-22T02:54:41;11.90;;;5.28;;
69779;SDS011;57052;55.602;38.096;2023-12-22T02:57:07;12.10;;;5.60;;
69779;SDS011;57052;55.602;38.096;2023-12-22T02:59:33;11.23;;;5.45;;
69779;SDS011;57052;55.602;38.096;2023-12-22T03:01:59;11.15;;;5.07;;
69779;SDS011;57052;55.602;38.096;2023-12-22T03:04:25;11.80;;;5.80;;
69779;SDS011;57052;55.602;38.096;2023-12-22T03:06:50;15.32;;;4.95;;
69779;SDS011;57052;55.602;38.096;2023-12-22T03:09:16;10.45;;;5.13;;
69779;SDS011;57052;55.602;38.096;2023-12-22T03:11:42;11.57;;;5.22;;
69779;SDS011;57052;55.602;38.096;2023-12-22T03:14:08;13.35;;;5.35;;
69779;SDS011;57052;55.602;38.096;2023-12-22T03:16:35;13.05;;;5.80;;
69779;SDS011;57052;55.602;38.096;2023-12-22T03:19:00;13.32;;;5.90;;
69779;SDS011;57052;55.602;38.096;2023-12-22T03:21:26;11.55;;;5.38;;
69779;SDS011;57052;55.602;38.096;2023-12-22T03:23:52;12.38;;;5.13;;
69779;SDS011;57052;55.602;38.096;2023-12-22T03:26:17;11.93;;;5.75;;
69779;SDS011;57052;55.602;38.096;2023-12-22T03:28:43;11.88;;;5.47;;
69779;SDS011;57052;55.602;38.096;2023-12-22T03:31:09;11.38;;;5.07;;
69779;SDS011;57052;55.602;38.096;2023-12-22T03:33:35;11.90;;;5.60;;
69779;SDS011;57052;55.602;38.096;2023-12-22T03:36:00;13.15;;;6.15;;
69779;SDS011;57052;55.602;38.096;2023-12-22T03:38:26;11.38;;;5.72;;
69779;SDS011;57052;55.602;38.096;2023-12-22T03:40:52;11.25;;;5.43;;
69779;SDS011;57052;55.602;38.096;2023-12-22T03:43:17;16.17;;;5.97;;
69779;SDS011;57052;55.602;38.096;2023-12-22T03:45:43;14.50;;;5.80;;
69779;SDS011;57052;55.602;38.096;2023-12-22T03:48:09;13.45;;;6.10;;
69779;SDS011;57052;55.602;38.096;2023-12-22T03:50:34;13.35;;;6.63;;
69779;SDS011;57052;55.602;38.096;2023-12-22T03:53:00;13.07;;;6.18;;
69779;SDS011;57052;55.602;38.096;2023-12-22T03:55:26;15.00;;;6.55;;
69779;SDS011;57052;55.602;38.096;2023-12-22T03:57:51;14.27;;;6.22;;
69779;SDS011;57052;55.602;38.096;2023-12-22T04:00:17;15.50;;;6.38;;
69779;SDS011;57052;55.602;38.096;2023-12-22T04:02:43;13.07;;;6.05;;
69779;SDS011;57052;55.602;38.096;2023-12-22T04:05:11;15.55;;;6.80;;
69779;SDS011;57052;55.602;38.096;2023-12-22T04:07:37;16.20;;;7.03;;
69779;SDS011;57052;55.602;38.096;2023-12-22T04:10:02;14.30;;;6.55;;
69779;SDS011;57052;55.602;38.096;2023-12-22T04:12:28;15.52;;;6.80;;
69779;SDS011;57052;55.602;38.096;2023-12-22T04:14:54;14.18;;;6.65;;
69779;SDS011;57052;55.602;38.096;2023-12-22T04:17:20;17.05;;;7.22;;
69779;SDS011;57052;55.602;38.096;2023-12-22T04:19:45;13.52;;;6.38;;
69779;SDS011;57052;55.602;38.096;2023-12-22T04:22:11;15.27;;;6.88;;
69779;SDS011;57052;55.602;38.096;2023-12-22T04:24:37;14.75;;;7.05;;
69779;SDS011;57052;55.602;38.096;2023-12-22T04:27:02;15.63;;;7.13;;
69779;SDS011;57052;55.602;38.096;2023-12-22T04:29:28;16.63;;;7.00;;
69779;SDS011;57052;55.602;38.096;2023-12-22T04:31:54;16.48;;;7.22;;
69779;SDS011;57052;55.602;38.096;2023-12-22T04:34:20;16.23;;;7.13;;
69779;SDS011;57052;55.602;38.096;2023-12-22T04:36:45;17.65;;;7.28;;
69779;SDS011;57052;55.602;38.096;2023-12-22T04:39:12;16.13;;;7.57;;
69779;SDS011;57052;55.602;38.096;2023-12-22T04:41:38;16.98;;;7.38;;
69779;SDS011;57052;55.602;38.096;2023-12-22T04:44:04;21.13;;;8.10;;
69779;SDS011;57052;55.602;38.096;2023-12-22T04:46:30;18.50;;;8.35;;
69779;SDS011;57052;55.602;38.096;2023-12-22T04:48:56;17.20;;;7.85;;
69779;SDS011;57052;55.602;38.096;2023-12-22T04:51:21;18.27;;;7.75;;
69779;SDS011;57052;55.602;38.096;2023-12-22T04:53:47;19.65;;;8.38;;
69779;SDS011;57052;55.602;38.096;2023-12-22T04:56:13;18.92;;;8.65;;
69779;SDS011;57052;55.602;38.096;2023-12-22T04:58:38;15.93;;;7.38;;
69779;SDS011;57052;55.602;38.096;2023-12-22T05:01:04;15.75;;;7.53;;
69779;SDS011;57052;55.602;38.096;2023-12-22T05:03:30;17.65;;;7.63;;
69779;SDS011;57052;55.602;38.096;2023-12-22T05:05:56;15.52;;;7.10;;
69779;SDS011;57052;55.602;38.096;2023-12-22T05:08:21;15.07;;;6.82;;
69779;SDS011;57052;55.602;38.096;2023-12-22T05:10:47;15.50;;;7.40;;
69779;SDS011;57052;55.602;38.096;2023-12-22T05:13:13;18.85;;;7.90;;
69779;SDS011;57052;55.602;38.096;2023-12-22T05:15:39;15.02;;;7.03;;
69779;SDS011;57052;55.602;38.096;2023-12-22T05:18:04;16.42;;;7.60;;
69779;SDS011;57052;55.602;38.096;2023-12-22T05:20:30;16.00;;;6.72;;
69779;SDS011;57052;55.602;38.096;2023-12-22T05:22:56;17.13;;;7.28;;
69779;SDS011;57052;55.602;38.096;2023-12-22T05:25:22;13.38;;;6.22;;
69779;SDS011;57052;55.602;38.096;2023-12-22T05:27:47;14.18;;;6.47;;
69779;SDS011;57052;55.602;38.096;2023-12-22T05:30:13;14.38;;;6.28;;
69779;SDS011;57052;55.602;38.096;2023-12-22T05:32:39;15.20;;;6.43;;
69779;SDS011;57052;55.602;38.096;2023-12-22T05:35:05;15.27;;;6.28;;
69779;SDS011;57052;55.602;38.096;2023-12-22T05:37:31;15.02;;;6.70;;
69779;SDS011;57052;55.602;38.096;2023-12-22T05:39:56;13.80;;;6.75;;
69779;SDS011;57052;55.602;38.096;2023-12-22T05:42:22;14.43;;;6.78;;
69779;SDS011;57052;55.602;38.096;2023-12-22T05:44:48;14.65;;;6.13;;
69779;SDS011;57052;55.602;38.096;2023-12-22T05:47:15;14.52;;;6.47;;
69779;SDS011;57052;55.602;38.096;2023-12-22T05:49:42;17.90;;;6.50;;
69779;SDS011;57052;55.602;38.096;2023-12-22T05:52:09;13.20;;;6.10;;
69779;SDS011;57052;55.602;38.096;2023-12-22T05:54:37;14.20;;;6.55;;
69779;SDS011;57052;55.602;38.096;2023-12-22T05:57:04;18.13;;;6.68;;
69779;SDS011;57052;55.602;38.096;2023-12-22T05:59:32;13.82;;;6.53;;
69779;SDS011;57052;55.602;38.096;2023-12-22T06:01:58;14.35;;;6.05;;
69779;SDS011;57052;55.602;38.096;2023-12-22T06:04:24;13.45;;;6.90;;
69779;SDS011;57052;55.602;38.096;2023-12-22T06:06:51;14.75;;;6.75;;
69779;SDS011;57052;55.602;38.096;2023-12-22T06:09:16;14.38;;;5.97;;
69779;SDS011;57052;55.602;38.096;2023-12-22T06:11:44;13.13;;;6.05;;
69779;SDS011;57052;55.602;38.096;2023-12-22T06:14:10;12.40;;;5.72;;
69779;SDS011;57052;55.602;38.096;2023-12-22T06:16:36;16.83;;;6.35;;
69779;SDS011;57052;55.602;38.096;2023-12-22T06:19:02;11.98;;;5.97;;
69779;SDS011;57052;55.602;38.096;2023-12-22T06:21:28;14.55;;;6.07;;
69779;SDS011;57052;55.602;38.096;2023-12-22T06:23:54;14.23;;;6.40;;
69779;SDS011;57052;55.602;38.096;2023-12-22T06:26:20;15.00;;;6.40;;
69779;SDS011;57052;55.602;38.096;2023-12-22T06:28:46;13.93;;;6.47;;
69779;SDS011;57052;55.602;38.096;2023-12-22T06:31:20;14.95;;;6.25;;
69779;SDS011;57052;55.602;38.096;2023-12-22T06:33:47;13.13;;;6.55;;
69779;SDS011;57052;55.602;38.096;2023-12-22T06:36:23;13.77;;;6.88;;
69779;SDS011;57052;55.602;38.096;2023-12-22T06:38:51;13.60;;;6.82;;
69779;SDS011;57052;55.602;38.096;2023-12-22T06:46:20;15.07;;;6.55;;
69779;SDS011;57052;55.602;38.096;2023-12-22T06:48:51;14.18;;;6.45;;
69779;SDS011;57052;55.602;38.096;2023-12-22T06:51:18;14.70;;;6.75;;
69779;SDS011;57052;55.602;38.096;2023-12-22T06:53:48;15.18;;;6.82;;
69779;SDS011;57052;55.602;38.096;2023-12-22T06:56:24;16.77;;;6.70;;
69779;SDS011;57052;55.602;38.096;2023-12-22T06:58:52;14.10;;;7.03;;
69779;SDS011;57052;55.602;38.096;2023-12-22T07:01:20;17.52;;;7.95;;
69779;SDS011;57052;55.602;38.096;2023-12-22T07:03:46;16.63;;;7.40;;
69779;SDS011;57052;55.602;38.096;2023-12-22T07:06:15;15.32;;;7.43;;
69779;SDS011;57052;55.602;38.096;2023-12-22T07:08:42;17.20;;;7.70;;
69779;SDS011;57052;55.602;38.096;2023-12-22T07:11:09;16.65;;;7.28;;
69779;SDS011;57052;55.602;38.096;2023-12-22T07:13:35;16.75;;;7.60;;
69779;SDS011;57052;55.602;38.096;2023-12-22T07:16:01;15.10;;;7.38;;
69779;SDS011;57052;55.602;38.096;2023-12-22T07:18:30;18.92;;;7.55;;
69779;SDS011;57052;55.602;38.096;2023-12-22T07:20:56;21.42;;;8.63;;
69779;SDS011;57052;55.602;38.096;2023-12-22T07:23:25;19.23;;;7.85;;
69779;SDS011;57052;55.602;38.096;2023-12-22T07:25:50;17.58;;;8.38;;
69779;SDS011;57052;55.602;38.096;2023-12-22T07:28:16;16.00;;;7.75;;
69779;SDS011;57052;55.602;38.096;2023-12-22T07:30:42;19.63;;;7.88;;
69779;SDS011;57052;55.602;38.096;2023-12-22T07:33:07;17.40;;;7.22;;
69779;SDS011;57052;55.602;38.096;2023-12-22T07:35:33;18.63;;;8.23;;
69779;SDS011;57052;55.602;38.096;2023-12-22T07:38:02;19.88;;;8.15;;
69779;SDS011;57052;55.602;38.096;2023-12-22T07:40:28;18.70;;;8.18;;
69779;SDS011;57052;55.602;38.096;2023-12-22T07:42:57;20.02;;;8.15;;
69779;SDS011;57052;55.602;38.096;2023-12-22T07:45:23;20.08;;;8.45;;
69779;SDS011;57052;55.602;38.096;2023-12-22T07:47:49;17.85;;;8.00;;
69779;SDS011;57052;55.602;38.096;2023-12-22T07:50:15;20.58;;;8.20;;
69779;SDS011;57052;55.602;38.096;2023-12-22T07:52:40;17.77;;;8.20;;
69779;SDS011;57052;55.602;38.096;2023-12-22T07:55:06;18.98;;;7.85;;
69779;SDS011;57052;55.602;38.096;2023-12-22T07:57:34;17.83;;;8.40;;
69779;SDS011;57052;55.602;38.096;2023-12-22T08:00:00;19.30;;;8.05;;
69779;SDS011;57052;55.602;38.096;2023-12-22T08:02:26;17.88;;;7.80;;
69779;SDS011;57052;55.602;38.096;2023-12-22T08:04:52;16.20;;;7.85;;
69779;SDS011;57052;55.602;38.096;2023-12-22T08:07:17;15.82;;;7.78;;
69779;SDS011;57052;55.602;38.096;2023-12-22T08:09:43;17.05;;;7.15;;
69779;SDS011;57052;55.602;38.096;2023-12-22T08:12:09;15.35;;;7.38;;
69779;SDS011;57052;55.602;38.096;2023-12-22T08:14:34;15.43;;;7.28;;
69779;SDS011;57052;55.602;38.096;2023-12-22T08:17:00;17.50;;;7.95;;
69779;SDS011;57052;55.602;38.096;2023-12-22T08:19:25;18.90;;;7.55;;
69779;SDS011;57052;55.602;38.096;2023-12-22T08:21:54;21.75;;;8.27;;
69779;SDS011;57052;55.602;38.096;2023-12-22T08:24:20;16.73;;;7.22;;
69779;SDS011;57052;55.602;38.096;2023-12-22T08:26:46;11.65;;;6.13;;
69779;SDS011;57052;55.602;38.096;2023-12-22T08:29:13;14.85;;;6.28;;
69779;SDS011;57052;55.602;38.096;2023-12-22T08:31:39;13.52;;;6.20;;
69779;SDS011;57052;55.602;38.096;2023-12-22T08:34:05;12.98;;;5.70;;
69779;SDS011;57052;55.602;38.096;2023-12-22T08:36:31;10.88;;;5.55;;
69779;SDS011;57052;55.602;38.096;2023-12-22T08:38:57;12.60;;;5.65;;
69779;SDS011;57052;55.602;38.096;2023-12-22T08:41:23;10.10;;;5.05;;
69779;SDS011;57052;55.602;38.096;2023-12-22T08:43:49;10.05;;;4.82;;
69779;SDS011;57052;55.602;38.096;2023-12-22T08:46:15;12.30;;;5.38;;
69779;SDS011;57052;55.602;38.096;2023-12-22T08:48:42;11.23;;;5.75;;
69779;SDS011;57052;55.602;38.096;2023-12-22T08:51:07;11.48;;;5.78;;
69779;SDS011;57052;55.602;38.096;2023-12-22T08:53:33;11.18;;;4.70;;
69779;SDS011;57052;55.602;38.096;2023-12-22T08:56:02;10.18;;;4.97;;
69779;SDS011;57052;55.602;38.096;2023-12-22T08:58:29;9.55;;;4.68;;
69779;SDS011;57052;55.602;38.096;2023-12-22T09:00:54;8.98;;;4.43;;
69779;SDS011;57052;55.602;38.096;2023-12-22T09:03:20;9.27;;;4.53;;
69779;SDS011;57052;55.602;38.096;2023-12-22T09:05:46;10.48;;;4.85;;
69779;SDS011;57052;55.602;38.096;2023-12-22T09:08:12;9.13;;;4.55;;
69779;SDS011;57052;55.602;38.096;2023-12-22T09:10:38;8.60;;;4.85;;
69779;SDS011;57052;55.602;38.096;2023-12-22T09:13:04;9.57;;;4.75;;
69779;SDS011;57052;55.602;38.096;2023-12-22T09:15:30;10.23;;;5.03;;
69779;SDS011;57052;55.602;38.096;2023-12-22T09:17:55;10.25;;;5.15;;
69779;SDS011;57052;55.602;38.096;2023-12-22T09:20:21;11.00;;;4.93;;
69779;SDS011;57052;55.602;38.096;2023-12-22T09:22:48;8.45;;;4.20;;
69779;SDS011;57052;55.602;38.096;2023-12-22T09:25:13;8.73;;;4.35;;
69779;SDS011;57052;55.602;38.096;2023-12-22T09:27:39;9.00;;;4.38;;
69779;SDS011;57052;55.602;38.096;2023-12-22T09:30:05;8.05;;;4.30;;
69779;SDS011;57052;55.602;38.096;2023-12-22T09:32:34;9.05;;;4.72;;
69779;SDS011;57052;55.602;38.096;2023-12-22T09:35:00;10.27;;;5.05;;
69779;SDS011;57052;55.602;38.096;2023-12-22T09:37:27;8.88;;;4.40;;
69779;SDS011;57052;55.602;38.096;2023-12-22T09:39:52;8.45;;;4.43;;
69779;SDS011;57052;55.602;38.096;2023-12-22T09:42:19;8.82;;;4.47;;
69779;SDS011;57052;55.602;38.096;2023-12-22T09:44:46;8.88;;;4.35;;
69779;SDS011;57052;55.602;38.096;2023-12-22T09:47:14;9.48;;;4.80;;
69779;SDS011;57052;55.602;38.096;2023-12-22T09:49:42;9.57;;;4.75;;
69779;SDS011;57052;55.602;38.096;2023-12-22T09:52:09;9.93;;;4.90;;
69779;SDS011;57052;55.602;38.096;2023-12-22T09:54:36;8.80;;;4.20;;
69779;SDS011;57052;55.602;38.096;2023-12-22T09:57:02;9.25;;;4.30;;
69779;SDS011;57052;55.602;38.096;2023-12-22T09:59:29;10.57;;;4.22;;
69779;SDS011;57052;55.602;38.096;2023-12-22T10:01:56;8.90;;;4.38;;
69779;SDS011;57052;55.602;38.096;2023-12-22T10:04:25;7.53;;;3.83;;
69779;SDS011;57052;55.602;38.096;2023-12-22T10:06:50;7.95;;;4.22;;
69779;SDS011;57052;55.602;38.096;2023-12-22T10:09:18;9.80;;;4.70;;
69779;SDS011;57052;55.602;38.096;2023-12-22T10:11:44;8.40;;;3.70;;
69779;SDS011;57052;55.602;38.096;2023-12-22T10:14:14;8.98;;;4.30;;
69779;SDS011;57052;55.602;38.096;2023-12-22T10:16:47;8.13;;;3.50;;
69779;SDS011;57052;55.602;38.096;2023-12-22T10:19:15;8.20;;;3.85;;
69779;SDS011;57052;55.602;38.096;2023-12-22T10:21:40;8.63;;;4.10;;
69779;SDS011;57052;55.602;38.096;2023-12-22T10:24:07;8.55;;;4.25;;
69779;SDS011;57052;55.602;38.096;2023-12-22T10:26:32;6.78;;;3.53;;
69779;SDS011;57052;55.602;38.096;2023-12-22T10:28:58;9.73;;;4.05;;
69779;SDS011;57052;55.602;38.096;2023-12-22T10:31:24;9.13;;;4.10;;
69779;SDS011;57052;55.602;38.096;2023-12-22T10:33:50;9.18;;;3.63;;
69779;SDS011;57052;55.602;38.096;2023-12-22T10:36:16;9.65;;;3.90;;
69779;SDS011;57052;55.602;38.096;2023-12-22T10:38:43;8.77;;;3.92;;
69779;SDS011;57052;55.602;38.096;2023-12-22T10:41:10;9.85;;;4.00;;
69779;SDS011;57052;55.602;38.096;2023-12-22T10:43:39;7.72;;;3.80;;
69779;SDS011;57052;55.602;38.096;2023-12-22T10:46:06;9.35;;;4.50;;
69779;SDS011;57052;55.602;38.096;2023-12-22T10:48:33;6.28;;;3.65;;
69779;SDS011;57052;55.602;38.096;2023-12-22T10:51:00;6.18;;;3.40;;
69779;SDS011;57052;55.602;38.096;2023-12-22T10:53:25;9.68;;;4.45;;
69779;SDS011;57052;55.602;38.096;2023-12-22T10:55:51;8.57;;;4.18;;
69779;SDS011;57052;55.602;38.096;2023-12-22T10:58:18;7.80;;;3.85;;
69779;SDS011;57052;55.602;38.096;2023-12-22T11:00:47;7.80;;;4.00;;
69779;SDS011;57052;55.602;38.096;2023-12-22T11:03:17;8.25;;;3.72;;
69779;SDS011;57052;55.602;38.096;2023-12-22T11:05:48;7.82;;;3.70;;
69779;SDS011;57052;55.602;38.096;2023-12-22T11:08:16;10.02;;;4.05;;
69779;SDS011;57052;55.602;38.096;2023-12-22T11:10:44;8.50;;;3.70;;
69779;SDS011;57052;55.602;38.096;2023-12-22T11:13:17;9.10;;;3.85;;
69779;SDS011;57052;55.602;38.096;2023-12-22T11:15:45;8.90;;;4.05;;
69779;SDS011;57052;55.602;38.096;2023-12-22T11:18:12;8.20;;;3.78;;
69779;SDS011;57052;55.602;38.096;2023-12-22T11:20:40;7.85;;;4.10;;
69779;SDS011;57052;55.602;38.096;2023-12-22T11:23:07;7.95;;;3.85;;
69779;SDS011;57052;55.602;38.096;2023-12-22T11:25:33;8.93;;;3.70;;
69779;SDS011;57052;55.602;38.096;2023-12-22T11:28:00;9.05;;;4.30;;
69779;SDS011;57052;55.602;38.096;2023-12-22T11:30:29;7.70;;;3.92;;
69779;SDS011;57052;55.602;38.096;2023-12-22T11:32:55;8.07;;;3.78;;
69779;SDS011;57052;55.602;38.096;2023-12-22T11:35:23;8.70;;;3.90;;
69779;SDS011;57052;55.602;38.096;2023-12-22T11:37:49;7.35;;;3.58;;
69779;SDS011;57052;55.602;38.096;2023-12-22T11:40:15;8.65;;;3.72;;
69779;SDS011;57052;55.602;38.096;2023-12-22T11:42:42;7.70;;;3.90;;
69779;SDS011;57052;55.602;38.096;2023-12-22T11:45:12;7.60;;;3.90;;
69779;SDS011;57052;55.602;38.096;2023-12-22T11:47:40;8.70;;;3.90;;
69779;SDS011;57052;55.602;38.096;2023-12-22T11:50:10;7.47;;;3.60;;
69779;SDS011;57052;55.602;38.096;2023-12-22T11:52:36;8.85;;;4.25;;
69779;SDS011;57052;55.602;38.096;2023-12-22T11:55:02;7.82;;;3.83;;
69779;SDS011;57052;55.602;38.096;2023-12-22T11:57:30;8.38;;;4.00;;
69779;SDS011;57052;55.602;38.096;2023-12-22T12:00:07;9.23;;;4.07;;
69779;SDS011;57052;55.602;38.096;2023-12-22T12:02:36;9.73;;;4.10;;
69779;SDS011;57052;55.602;38.096;2023-12-22T12:05:09;8.52;;;3.65;;
69779;SDS011;57052;55.602;38.096;2023-12-22T12:07:38;10.90;;;4.38;;
69779;SDS011;57052;55.602;38.096;2023-12-22T12:10:11;10.00;;;4.30;;
69779;SDS011;57052;55.602;38.096;2023-12-22T12:12:38;10.40;;;4.22;;
69779;SDS011;57052;55.602;38.096;2023-12-22T12:15:08;12.38;;;4.55;;
69779;SDS011;57052;55.602;38.096;2023-12-22T12:17:39;7.45;;;3.90;;
69779;SDS011;57052;55.602;38.096;2023-12-22T12:20:06;11.90;;;4.40;;
69779;SDS011;57052;55.602;38.096;2023-12-22T12:22:35;8.80;;;4.60;;
69779;SDS011;57052;55.602;38.096;2023-12-22T12:25:06;9.27;;;4.10;;
69779;SDS011;57052;55.602;38.096;2023-12-22T12:27:34;10.15;;;4.88;;
69779;SDS011;57052;55.602;38.096;2023-12-22T12:30:11;8.88;;;4.53;;
69779;SDS011;57052;55.602;38.096;2023-12-22T12:32:40;9.90;;;4.35;;
69779;SDS011;57052;55.602;38.096;2023-12-22T12:35:08;12.13;;;5.28;;
69779;SDS011;57052;55.602;38.096;2023-12-22T12:37:34;8.80;;;4.35;;
69779;SDS011;57052;55.602;38.096;2023-12-22T12:40:01;12.82;;;5.03;;
69779;SDS011;57052;55.602;38.096;2023-12-22T12:42:31;10.13;;;4.78;;
69779;SDS011;57052;55.602;38.096;2023-12-22T12:44:57;10.18;;;5.13;;
69779;SDS011;57052;55.602;38.096;2023-12-22T12:47:22;9.65;;;4.65;;
69779;SDS011;57052;55.602;38.096;2023-12-22T12:50:00;14.32;;;5.65;;
69779;SDS011;57052;55.602;38.096;2023-12-22T12:52:27;14.85;;;5.03;;
69779;SDS011;57052;55.602;38.096;2023-12-22T12:54:53;12.38;;;4.95;;
69779;SDS011;57052;55.602;38.096;2023-12-22T12:57:19;12.75;;;5.65;;
69779;SDS011;57052;55.602;38.096;2023-12-22T12:59:46;12.15;;;5.25;;
69779;SDS011;57052;55.602;38.096;2023-12-22T13:02:15;12.25;;;5.40;;
69779;SDS011;57052;55.602;38.096;2023-12-22T13:04:42;12.70;;;5.15;;
69779;SDS011;57052;55.602;38.096;2023-12-22T13:07:08;13.02;;;5.32;;
69779;SDS011;57052;55.602;38.096;2023-12-22T13:09:35;12.63;;;5.80;;
69779;SDS011;57052;55.602;38.096;2023-12-22T13:12:02;14.10;;;5.63;;
69779;SDS011;57052;55.602;38.096;2023-12-22T13:14:29;13.30;;;5.95;;
69779;SDS011;57052;55.602;38.096;2023-12-22T13:16:57;13.32;;;6.63;;
69779;SDS011;57052;55.602;38.096;2023-12-22T13:19:24;14.38;;;6.60;;
69779;SDS011;57052;55.602;38.096;2023-12-22T13:21:51;14.38;;;5.95;;
69779;SDS011;57052;55.602;38.096;2023-12-22T13:24:20;14.15;;;5.80;;
69779;SDS011;57052;55.602;38.096;2023-12-22T13:26:46;14.23;;;5.70;;
69779;SDS011;57052;55.602;38.096;2023-12-22T13:29:12;16.38;;;6.43;;
69779;SDS011;57052;55.602;38.096;2023-12-22T13:31:40;12.95;;;6.07;;
69779;SDS011;57052;55.602;38.096;2023-12-22T13:34:11;11.90;;;5.35;;
69779;SDS011;57052;55.602;38.096;2023-12-22T13:36:38;13.05;;;6.32;;
69779;SDS011;57052;55.602;38.096;2023-12-22T13:39:05;10.93;;;4.82;;
69779;SDS011;57052;55.602;38.096;2023-12-22T13:41:39;12.43;;;5.45;;
69779;SDS011;57052;55.602;38.096;2023-12-22T13:44:12;14.05;;;5.70;;
69779;SDS011;57052;55.602;38.096;2023-12-22T13:46:38;12.43;;;5.55;;
69779;SDS011;57052;55.602;38.096;2023-12-22T13:49:07;12.98;;;5.78;;
69779;SDS011;57052;55.602;38.096;2023-12-22T13:54:09;14.52;;;6.15;;
69779;SDS011;57052;55.602;38.096;2023-12-22T13:56:35;16.50;;;6.47;;
69779;SDS011;57052;55.602;38.096;2023-12-22T13:59:02;11.90;;;5.38;;
69779;SDS011;57052;55.602;38.096;2023-12-22T14:01:29;14.88;;;5.65;;
69779;SDS011;57052;55.602;38.096;2023-12-22T14:03:55;14.60;;;5.85;;
69779;SDS011;57052;55.602;38.096;2023-12-22T14:06:23;11.40;;;5.75;;
69779;SDS011;57052;55.602;38.096;2023-12-22T14:08:53;13.85;;;5.53;;
69779;SDS011;57052;55.602;38.096;2023-12-22T14:11:19;15.95;;;5.55;;
69779;SDS011;57052;55.602;38.096;2023-12-22T14:13:45;13.25;;;5.47;;
69779;SDS011;57052;55.602;38.096;2023-12-22T14:16:11;14.82;;;6.03;;
69779;SDS011;57052;55.602;38.096;2023-12-22T14:18:37;15.43;;;6.03;;
69779;SDS011;57052;55.602;38.096;2023-12-22T14:21:02;12.43;;;6.07;;
69779;SDS011;57052;55.602;38.096;2023-12-22T14:23:30;15.27;;;5.68;;
69779;SDS011;57052;55.602;38.096;2023-12-22T14:25:56;14.43;;;5.97;;
69779;SDS011;57052;55.602;38.096;2023-12-22T14:28:22;16.13;;;7.03;;
69779;SDS011;57052;55.602;38.096;2023-12-22T14:30:48;13.55;;;5.85;;